Terminal Aerodrome Forecast
Issued by NWS

Home | Current Version | Previous Version | Text Only | Print | Product List | Glossary On
Versions: 1 2 3 4 5 6 7 8 9 10 11 12 13 14 15 16 17 18 19 20 21 22 23 24 25 26 27 28 29
000
FTUS41 KPBZ 032323
TAFDUJ
TAF
KDUJ 032323Z 0400/0424 04006KT P6SM SCT045
      TEMPO 0400/0401 01010G25KT 2SM -TSRA BKN015CB
     FM040600 00000KT 3SM BR SKC
     FM040800 00000KT 1/2SM FG BKN005
     FM041400 10004KT P6SM SCT035=

USA.gov is the U.S. government's official web portal to all federal, state and local government web resources and services.